createdAt,value
2018-11-10T00:00:20.943Z,7.98
2018-11-10T00:01:30.636Z,7.98
2018-11-10T00:02:40.071Z,7.85
2018-11-10T00:03:49.754Z,8.05
2018-11-10T00:04:59.461Z,8.05
2018-11-10T00:06:09.420Z,8.01
2018-11-10T00:07:19.360Z,7.98
2018-11-10T00:08:29.487Z,7.99
2018-11-10T00:09:39.486Z,8.02
2018-11-10T00:10:48.919Z,7.95
2018-11-10T00:11:58.614Z,7.93
2018-11-10T00:13:08.034Z,7.96
2018-11-10T00:14:17.715Z,8.05
2018-11-10T00:15:26.883Z,7.98
2018-11-10T00:16:36.905Z,8.02
2018-11-10T00:17:46.952Z,7.96
2018-11-10T00:18:56.407Z,8.01
2018-11-10T00:20:06.105Z,8.03
2018-11-10T00:21:15.540Z,8.01
2018-11-10T00:22:24.709Z,8.05
2018-11-10T00:23:34.387Z,8.03
2018-11-10T00:24:43.887Z,7.98
2018-11-10T00:25:53.852Z,8.13
2018-11-10T00:27:03.806Z,8.03
2018-11-10T00:28:13.514Z,8.03
2018-11-10T00:29:22.949Z,8.01
2018-11-10T00:30:32.644Z,8.03
2018-11-10T00:31:42.591Z,7.9
2018-11-10T00:32:52.546Z,7.96
2018-11-10T00:34:01.978Z,7.98
2018-11-10T00:35:11.693Z,7.95
2018-11-10T00:36:21.406Z,7.93
2018-11-10T00:37:31.372Z,7.88
2018-11-10T00:38:40.837Z,7.99
2018-11-10T00:39:50.292Z,7.98
2018-11-10T00:40:59.980Z,7.88
2018-11-10T00:42:09.677Z,7.83
2018-11-10T00:43:19.113Z,7.93
2018-11-10T00:44:28.801Z,7.85
2018-11-10T00:45:38.777Z,7.85
2018-11-10T00:46:47.945Z,7.85
2018-11-10T00:47:57.920Z,7.72
2018-11-10T00:49:07.618Z,7.87
2018-11-10T00:50:17.059Z,7.75
2018-11-10T00:51:26.747Z,7.85
2018-11-10T00:52:36.693Z,7.72
2018-11-10T00:53:46.635Z,7.87
2018-11-10T00:54:55.812Z,7.77
2018-11-10T00:56:05.487Z,7.77
2018-11-10T00:57:15.175Z,7.74
2018-11-10T00:58:24.337Z,7.83
2018-11-10T00:59:33.772Z,7.74
2018-11-10T01:00:43.454Z,7.8
2018-11-10T01:01:53.149Z,7.66
2018-11-10T01:03:03.111Z,7.8
2018-11-10T01:04:13.061Z,7.81
2018-11-10T01:05:22.996Z,7.78
2018-11-10T01:06:32.673Z,7.77
2018-11-10T01:07:42.369Z,7.75
2018-11-10T01:08:52.349Z,7.72
2018-11-10T01:10:01.577Z,7.8
2018-11-10T01:11:11.280Z,7.74
2018-11-10T01:12:20.730Z,7.69
2018-11-10T01:13:30.669Z,7.69
2018-11-10T01:14:40.606Z,7.59
2018-11-10T01:15:50.550Z,7.66
2018-11-10T01:17:00.242Z,7.66
2018-11-10T01:18:09.924Z,7.62
2018-11-10T01:19:19.627Z,7.64
2018-11-10T01:20:29.571Z,7.62
2018-11-10T01:21:39.519Z,7.69
2018-11-10T01:22:49.464Z,7.67
2018-11-10T01:23:59.164Z,7.59
2018-11-10T01:25:08.605Z,7.64
2018-11-10T01:26:18.302Z,7.64
2018-11-10T01:27:27.988Z,7.64
2018-11-10T01:28:37.959Z,7.62
2018-11-10T01:29:47.934Z,7.61
2018-11-10T01:30:57.632Z,7.53
2018-11-10T01:32:07.326Z,7.56
2018-11-10T01:33:16.757Z,7.53
2018-11-10T01:34:26.465Z,7.48
2018-11-10T01:35:36.425Z,7.55
2018-11-10T01:36:46.410Z,7.5
2018-11-10T01:37:56.357Z,7.53
2018-11-10T01:39:06.061Z,7.46
2018-11-10T01:40:15.502Z,7.5
2018-11-10T01:41:24.951Z,7.43
2018-11-10T01:42:34.640Z,7.51
2018-11-10T01:43:44.321Z,7.47
2018-11-10T01:44:54.259Z,7.37
2018-11-10T01:46:03.455Z,7.39
2018-11-10T01:47:12.883Z,7.33
2018-11-10T01:48:22.855Z,7.37
2018-11-10T01:49:32.809Z,7.39
2018-11-10T01:50:42.773Z,7.39
2018-11-10T01:51:52.460Z,7.32
2018-11-10T01:53:02.151Z,7.4
2018-11-10T01:54:11.837Z,7.36
2018-11-10T01:55:21.520Z,7.23
2018-11-10T01:56:31.231Z,7.29
2018-11-10T01:57:40.920Z,7.32
2018-11-10T01:58:50.596Z,7.28
2018-11-10T02:00:00.540Z,7.37
2018-11-10T02:01:10.507Z,7.26
2018-11-10T02:02:19.951Z,7.31
2018-11-10T02:03:29.639Z,7.32
2018-11-10T02:04:39.569Z,7.33
2018-11-10T02:05:49.246Z,7.28
2018-11-10T02:06:59.201Z,7.36
2018-11-10T02:08:08.611Z,7.26
2018-11-10T02:09:18.583Z,7.33
2018-11-10T02:10:28.029Z,7.23
2018-11-10T02:11:37.701Z,7.18
2018-11-10T02:12:47.643Z,7.22
2018-11-10T02:13:57.061Z,7.19
2018-11-10T02:15:07.016Z,7.21
2018-11-10T02:16:16.188Z,7.23
2018-11-10T02:17:25.361Z,7.15
2018-11-10T02:18:35.358Z,7.18
2018-11-10T02:19:44.788Z,7.14
2018-11-10T02:20:54.218Z,7.15
2018-11-10T02:22:03.659Z,7.03
2018-11-10T02:23:13.356Z,7.11
2018-11-10T02:24:22.794Z,7.08
2018-11-10T02:25:32.481Z,7.18
2018-11-10T02:26:42.439Z,7.03
2018-11-10T02:27:51.617Z,7.04
2018-11-10T02:29:01.567Z,7.07
2018-11-10T02:30:11.267Z,7.14
2018-11-10T02:31:20.698Z,7.05
2018-11-10T02:32:30.128Z,6.97
2018-11-10T02:33:39.824Z,7.08
2018-11-10T02:34:49.507Z,7.08
2018-11-10T02:35:59.197Z,7.13
2018-11-10T02:37:08.903Z,7.01
2018-11-10T02:38:18.597Z,7.05
2018-11-10T02:39:28.603Z,7.05
2018-11-10T02:40:38.302Z,7.01
2018-11-10T02:41:48.018Z,7.07
2018-11-10T02:42:57.713Z,7.01
2018-11-10T02:44:07.398Z,6.97
2018-11-10T02:45:16.585Z,6.95
2018-11-10T02:46:25.493Z,6.96
2018-11-10T02:47:35.177Z,6.89
2018-11-10T02:48:44.878Z,6.83
2018-11-10T02:49:54.570Z,6.89
2018-11-10T02:51:04.262Z,6.86
2018-11-10T02:52:13.172Z,6.86
2018-11-10T02:53:23.133Z,6.85
2018-11-10T02:54:33.073Z,6.78
2018-11-10T02:55:43.021Z,6.83
2018-11-10T02:56:52.964Z,6.75
2018-11-10T02:58:02.650Z,6.82
2018-11-10T02:59:11.830Z,6.83
2018-11-10T03:00:21.508Z,6.86
2018-11-10T03:01:30.937Z,6.8
2018-11-10T03:02:40.875Z,6.8
2018-11-10T03:03:50.820Z,6.8
2018-11-10T03:05:00.760Z,6.8
2018-11-10T03:06:10.449Z,6.75
2018-11-10T03:07:20.390Z,6.78
2018-11-10T03:08:30.083Z,6.78
2018-11-10T03:09:39.771Z,6.67
2018-11-10T03:10:49.996Z,6.74
2018-11-10T03:12:00.306Z,6.7
2018-11-10T03:13:10.252Z,6.7
2018-11-10T03:14:19.962Z,6.7
2018-11-10T03:15:29.394Z,6.74
2018-11-10T03:16:39.547Z,6.7
2018-11-10T03:17:48.707Z,6.72
2018-11-10T03:18:58.134Z,6.83
2018-11-10T03:20:07.830Z,6.68
2018-11-10T03:21:17.525Z,6.67
2018-11-10T03:22:27.202Z,6.71
2018-11-10T03:23:36.884Z,6.67
2018-11-10T03:24:46.821Z,6.67
2018-11-10T03:25:56.771Z,6.7
2018-11-10T03:27:06.712Z,6.67
2018-11-10T03:28:16.387Z,6.71
2018-11-10T03:29:25.822Z,6.71
2018-11-10T03:30:35.507Z,6.72
2018-11-10T03:31:45.189Z,6.71
2018-11-10T03:32:54.374Z,6.72
2018-11-10T03:34:04.073Z,6.65
2018-11-10T03:35:13.242Z,6.75
2018-11-10T03:36:23.188Z,6.67
2018-11-10T03:37:32.868Z,6.71
2018-11-10T03:38:42.065Z,6.68
2018-11-10T03:39:52.016Z,6.68
2018-11-10T03:41:01.711Z,6.68
2018-11-10T03:42:11.394Z,6.67
2018-11-10T03:43:20.820Z,6.71
2018-11-10T03:44:30.496Z,6.71
2018-11-10T03:45:39.938Z,6.71
2018-11-10T03:46:49.884Z,6.71
2018-11-10T03:47:59.307Z,6.59
2018-11-10T03:49:08.990Z,6.59
2018-11-10T03:50:18.691Z,6.64
2018-11-10T03:51:28.393Z,6.62
2018-11-10T03:52:38.337Z,6.6
2018-11-10T03:53:47.770Z,6.59
2018-11-10T03:54:57.724Z,6.67
2018-11-10T03:56:07.149Z,6.74
2018-11-10T03:57:16.837Z,6.68
2018-11-10T03:58:26.266Z,6.72
2018-11-10T03:59:35.684Z,6.67
2018-11-10T04:00:45.122Z,6.7
2018-11-10T04:01:55.063Z,6.71
2018-11-10T04:03:04.763Z,6.72
2018-11-10T04:04:14.710Z,6.68
2018-11-10T04:05:24.404Z,6.68
2018-11-10T04:06:34.362Z,6.67
2018-11-10T04:07:44.042Z,6.67
2018-11-10T04:08:53.747Z,6.68
2018-11-10T04:10:03.438Z,6.65
2018-11-10T04:11:13.134Z,6.67
2018-11-10T04:12:23.084Z,6.77
2018-11-10T04:13:33.071Z,6.72
2018-11-10T04:14:43.020Z,6.8
2018-11-10T04:15:52.444Z,6.7
2018-11-10T04:17:02.136Z,6.85
2018-11-10T04:18:11.556Z,6.83
2018-11-10T04:19:21.262Z,6.82
2018-11-10T04:20:30.948Z,6.83
2018-11-10T04:21:40.912Z,6.87
2018-11-10T04:22:50.852Z,6.86
2018-11-10T04:24:00.800Z,6.86
2018-11-10T04:25:10.487Z,7
2018-11-10T04:26:20.429Z,6.89
2018-11-10T04:27:30.132Z,6.9
2018-11-10T04:28:39.832Z,6.95
2018-11-10T04:29:49.524Z,6.95
2018-11-10T04:30:59.464Z,7.01
2018-11-10T04:32:09.428Z,6.97
2018-11-10T04:33:19.370Z,6.89
2018-11-10T04:34:29.058Z,6.96
2018-11-10T04:35:38.503Z,6.95
2018-11-10T04:36:48.484Z,6.92
2018-11-10T04:37:58.162Z,7
2018-11-10T04:39:07.586Z,6.9
2018-11-10T04:40:17.513Z,6.86
2018-11-10T04:41:27.209Z,6.97
2018-11-10T04:42:36.900Z,6.92
2018-11-10T04:43:46.930Z,6.86
2018-11-10T04:44:56.890Z,6.83
2018-11-10T04:46:06.058Z,6.89
2018-11-10T04:47:15.748Z,6.9
2018-11-10T04:48:25.465Z,6.95
2018-11-10T04:49:35.509Z,6.95
2018-11-10T04:50:45.279Z,6.87
2018-11-10T04:51:54.194Z,6.97
2018-11-10T04:53:03.877Z,6.9
2018-11-10T04:54:13.577Z,6.93
2018-11-10T04:55:23.261Z,6.97
2018-11-10T04:56:32.945Z,6.9
2018-11-10T04:57:42.366Z,6.92
2018-11-10T04:58:52.046Z,6.92
2018-11-10T05:00:01.469Z,6.9
2018-11-10T05:01:11.471Z,6.89
2018-11-10T05:02:20.654Z,6.97
2018-11-10T05:03:30.344Z,6.89
2018-11-10T05:04:39.769Z,6.95
2018-11-10T05:05:49.190Z,6.93
2018-11-10T05:06:58.633Z,6.97
2018-11-10T05:08:08.586Z,6.93
2018-11-10T05:09:18.539Z,6.96
2018-11-10T05:10:28.485Z,7.01
2018-11-10T05:11:38.424Z,7.03
2018-11-10T05:12:48.113Z,6.97
2018-11-10T05:13:58.061Z,6.97
2018-11-10T05:15:07.794Z,7.07
2018-11-10T05:16:17.753Z,7.01
2018-11-10T05:17:27.434Z,7.1
2018-11-10T05:18:37.374Z,7.07
2018-11-10T05:19:47.307Z,7.11
2018-11-10T05:20:57.249Z,7.07
2018-11-10T05:22:07.195Z,7.01
2018-11-10T05:23:16.866Z,7.13
2018-11-10T05:24:26.805Z,7.15
2018-11-10T05:25:36.757Z,7.13
2018-11-10T05:26:46.188Z,7.14
2018-11-10T05:27:56.123Z,7.19
2018-11-10T05:29:05.823Z,7.23
2018-11-10T05:30:15.509Z,7.23
2018-11-10T05:31:25.117Z,7.23
2018-11-10T05:32:35.067Z,7.19
2018-11-10T05:33:44.239Z,7.18
2018-11-10T05:34:53.931Z,7.21
2018-11-10T05:36:03.621Z,7.23
2018-11-10T05:37:13.310Z,7.15
2018-11-10T05:38:22.997Z,7.18
2018-11-10T05:39:32.689Z,7.21
2018-11-10T05:40:42.628Z,7.21
2018-11-10T05:41:52.314Z,7.22
2018-11-10T05:43:01.757Z,7.21
2018-11-10T05:44:11.711Z,7.32
2018-11-10T05:45:21.141Z,7.21
2018-11-10T05:46:30.835Z,7.22
2018-11-10T05:47:40.771Z,7.18
2018-11-10T05:48:50.719Z,7.21
2018-11-10T05:50:00.660Z,7.23
2018-11-10T05:51:10.343Z,7.21
2018-11-10T05:52:20.279Z,7.21
2018-11-10T05:53:29.715Z,7.14
2018-11-10T05:54:39.666Z,7.14
2018-11-10T05:55:49.364Z,7.15
2018-11-10T05:56:59.363Z,7.1
2018-11-10T05:58:09.489Z,7.07
2018-11-10T05:59:19.178Z,7.15
2018-11-10T06:00:28.342Z,7.08
2018-11-10T06:01:38.028Z,7.04
2018-11-10T06:02:47.192Z,7.03
2018-11-10T06:03:57.137Z,7.05
2018-11-10T06:05:07.094Z,7.14
2018-11-10T06:06:16.522Z,7.1
2018-11-10T06:07:26.465Z,7.14
2018-11-10T06:08:36.420Z,7.04
2018-11-10T06:09:46.263Z,7.01
2018-11-10T06:10:56.452Z,7.04
2018-11-10T06:12:06.404Z,7.04
2018-11-10T06:13:16.116Z,7.08
2018-11-10T06:14:25.811Z,7.04
2018-11-10T06:15:35.254Z,7.01
2018-11-10T06:16:45.198Z,7.05
2018-11-10T06:17:55.146Z,7.01
2018-11-10T06:19:05.091Z,7.04
2018-11-10T06:20:14.773Z,7.05
2018-11-10T06:21:24.466Z,7.07
2018-11-10T06:22:33.891Z,7.04
2018-11-10T06:23:43.318Z,7.11
2018-11-10T06:24:53.284Z,7.03
2018-11-10T06:26:02.753Z,7.03
2018-11-10T06:27:12.976Z,6.97
2018-11-10T06:28:22.925Z,7.01
2018-11-10T06:29:32.860Z,7.05
2018-11-10T06:30:42.293Z,7.01
2018-11-10T06:31:52.222Z,6.97
2018-11-10T06:33:01.899Z,6.92
2018-11-10T06:34:11.611Z,6.96
2018-11-10T06:35:21.574Z,7
2018-11-10T06:36:31.282Z,7.03
2018-11-10T06:37:40.968Z,7.04
2018-11-10T06:38:50.909Z,6.97
2018-11-10T06:40:00.580Z,7.04
2018-11-10T06:41:10.412Z,6.93
2018-11-10T06:42:19.845Z,7.04
2018-11-10T06:43:29.535Z,7.07
2018-11-10T06:44:39.221Z,7.03
2018-11-10T06:45:49.181Z,7.07
2018-11-10T06:46:58.913Z,7.05
2018-11-10T06:48:09.148Z,7.03
2018-11-10T06:49:19.091Z,7.05
2018-11-10T06:50:28.767Z,7.05
2018-11-10T06:51:38.449Z,7.04
2018-11-10T06:52:48.038Z,7.03
2018-11-10T06:53:58.182Z,7.03
2018-11-10T06:55:07.641Z,7.03
2018-11-10T06:56:17.334Z,7.05
2018-11-10T06:57:27.037Z,7.04
2018-11-10T06:58:36.725Z,6.97
2018-11-10T06:59:46.168Z,7.04
2018-11-10T07:00:56.103Z,7.05
2018-11-10T07:02:06.042Z,7.05
2018-11-10T07:03:15.928Z,7.08
2018-11-10T07:04:26.121Z,7.05
2018-11-10T07:05:35.822Z,7.03
2018-11-10T07:06:45.248Z,7.08
2018-11-10T07:07:54.931Z,7.03
2018-11-10T07:09:04.880Z,7.04
2018-11-10T07:10:14.565Z,7.04
2018-11-10T07:11:24.291Z,6.97
2018-11-10T07:12:34.238Z,7.15
2018-11-10T07:13:44.193Z,7.21
2018-11-10T07:14:54.107Z,7.13
2018-11-10T07:16:04.065Z,7.21
2018-11-10T07:17:13.502Z,7.22
2018-11-10T07:18:22.965Z,7.19
2018-11-10T07:19:32.931Z,7.22
2018-11-10T07:20:42.621Z,7.25
2018-11-10T07:21:52.062Z,7.22
2018-11-10T07:23:01.748Z,7.31
2018-11-10T07:24:11.702Z,7.36
2018-11-10T07:25:21.151Z,7.31
2018-11-10T07:26:31.175Z,7.33
2018-11-10T07:27:40.900Z,7.31
2018-11-10T07:28:50.332Z,7.33
2018-11-10T07:30:00.273Z,7.41
2018-11-10T07:31:09.956Z,7.36
2018-11-10T07:32:19.655Z,7.33
2018-11-10T07:33:29.327Z,7.4
2018-11-10T07:34:39.298Z,7.43
2018-11-10T07:35:48.990Z,7.4
2018-11-10T07:36:58.668Z,7.29
2018-11-10T07:38:08.625Z,7.29
2018-11-10T07:39:18.565Z,7.36
2018-11-10T07:40:28.515Z,7.39
2018-11-10T07:41:38.197Z,7.39
2018-11-10T07:42:47.652Z,7.32
2018-11-10T07:43:56.837Z,7.39
2018-11-10T07:45:06.779Z,7.39
2018-11-10T07:46:16.505Z,7.31
2018-11-10T07:47:26.238Z,7.37
2018-11-10T07:48:35.929Z,7.37
2018-11-10T07:49:45.611Z,7.43
2018-11-10T07:50:55.313Z,7.5
2018-11-10T07:52:05.283Z,7.41
2018-11-10T07:53:15.226Z,7.46
2018-11-10T07:54:24.754Z,7.48
2018-11-10T07:55:34.556Z,7.56
2018-11-10T07:56:44.255Z,7.56
2018-11-10T07:57:54.190Z,7.5
2018-11-10T07:59:04.145Z,7.59
2018-11-10T08:00:13.826Z,7.56
2018-11-10T08:01:23.771Z,7.59
2018-11-10T08:02:33.732Z,7.62
2018-11-10T08:03:43.161Z,7.59
2018-11-10T08:04:52.893Z,7.64
2018-11-10T08:06:02.584Z,7.61
2018-11-10T08:07:12.273Z,7.59
2018-11-10T08:08:21.960Z,7.59
2018-11-10T08:09:31.639Z,7.67
2018-11-10T08:10:40.825Z,7.74
2018-11-10T08:11:50.622Z,7.69
2018-11-10T08:13:00.771Z,7.78
2018-11-10T08:14:10.720Z,7.83
2018-11-10T08:15:19.915Z,7.81
2018-11-10T08:16:29.861Z,7.81
2018-11-10T08:17:39.045Z,7.75
2018-11-10T08:18:49.113Z,7.83
2018-11-10T08:19:59.061Z,7.77
2018-11-10T08:21:08.767Z,7.69
2018-11-10T08:22:18.469Z,7.75
2018-11-10T08:23:28.410Z,7.78
2018-11-10T08:24:38.100Z,7.84
2018-11-10T08:25:47.283Z,7.83
2018-11-10T08:26:56.988Z,7.9
2018-11-10T08:28:06.944Z,7.83
2018-11-10T08:29:16.651Z,7.85
2018-11-10T08:30:26.344Z,7.93
2018-11-10T08:31:36.305Z,7.95
2018-11-10T08:32:46.264Z,8.02
2018-11-10T08:33:56.215Z,7.99
2018-11-10T08:35:05.905Z,8.03
2018-11-10T08:36:15.317Z,8.11
2018-11-10T08:37:24.736Z,8.2
2018-11-10T08:38:34.422Z,8.2
2018-11-10T08:39:44.389Z,8.27
2018-11-10T08:40:54.105Z,8.27
2018-11-10T08:42:04.064Z,8.32
2018-11-10T08:43:12.997Z,8.32
2018-11-10T08:44:22.942Z,8.26
2018-11-10T08:45:32.900Z,8.18
2018-11-10T08:46:42.846Z,8.34
2018-11-10T08:47:52.796Z,8.38
2018-11-10T08:49:02.851Z,8.38
2018-11-10T08:50:12.653Z,8.36
2018-11-10T08:51:21.819Z,8.45
2018-11-10T08:52:30.985Z,8.49
2018-11-10T08:53:40.940Z,8.45
2018-11-10T08:54:50.902Z,8.61
2018-11-10T08:56:00.341Z,8.53
2018-11-10T08:57:09.520Z,8.56
2018-11-10T08:58:19.198Z,8.6
2018-11-10T08:59:29.143Z,8.64
2018-11-10T09:00:38.569Z,8.68
2018-11-10T09:01:48.525Z,8.72
2018-11-10T09:02:58.486Z,8.68
2018-11-10T09:04:07.660Z,8.69
2018-11-10T09:05:17.596Z,8.75
2018-11-10T09:06:27.281Z,8.78
2018-11-10T09:07:36.975Z,8.77
2018-11-10T09:08:46.654Z,8.84
2018-11-10T09:09:56.900Z,8.89
2018-11-10T09:11:07.187Z,9.02
2018-11-10T09:12:17.152Z,8.93
2018-11-10T09:13:26.853Z,8.97
2018-11-10T09:14:36.273Z,8.93
2018-11-10T09:15:45.706Z,8.9
2018-11-10T09:16:55.150Z,8.84
2018-11-10T09:18:04.566Z,8.92
2018-11-10T09:19:14.260Z,8.95
2018-11-10T09:20:24.197Z,8.93
2018-11-10T09:21:34.218Z,8.96
2018-11-10T09:22:43.818Z,8.99
2018-11-10T09:23:53.511Z,9.05
2018-11-10T09:25:03.190Z,9.05
2018-11-10T09:26:12.876Z,9.03
2018-11-10T09:27:22.316Z,9.11
2018-11-10T09:28:32.040Z,9.08
2018-11-10T09:29:41.985Z,9.09
2018-11-10T09:30:51.250Z,9.02
2018-11-10T09:32:01.201Z,9.09
2018-11-10T09:33:10.893Z,9.05
2018-11-10T09:34:20.582Z,8.99
2018-11-10T09:35:30.282Z,9
2018-11-10T09:36:40.244Z,8.96
2018-11-10T09:37:50.190Z,8.97
2018-11-10T09:38:59.873Z,8.95
2018-11-10T09:40:09.569Z,9.13
2018-11-10T09:41:18.997Z,9.18
2018-11-10T09:42:29.483Z,9.16
2018-11-10T09:43:40.040Z,9.26
2018-11-10T09:44:49.749Z,9.29
2018-11-10T09:45:59.690Z,9.24
2018-11-10T09:47:09.645Z,9.39
2018-11-10T09:48:18.834Z,9.45
2018-11-10T09:49:28.547Z,9.58
2018-11-10T09:50:38.325Z,9.56
2018-11-10T09:51:48.052Z,9.69
2018-11-10T09:52:58.007Z,9.69
2018-11-10T09:54:07.472Z,9.81
2018-11-10T09:55:17.162Z,9.91
2018-11-10T09:56:27.106Z,10.06
2018-11-10T09:57:37.058Z,10.18
2018-11-10T09:58:46.767Z,10.23
2018-11-10T09:59:56.441Z,10.36
2018-11-10T10:01:05.923Z,10.28
2018-11-10T10:02:18.293Z,10.25
2018-11-10T10:03:29.100Z,10.23
2018-11-10T10:04:38.531Z,10.12
2018-11-10T10:05:48.222Z,10.07
2018-11-10T10:06:57.687Z,10.09
2018-11-10T10:08:07.642Z,10.06
2018-11-10T10:09:17.088Z,10.1
2018-11-10T10:10:26.518Z,10.21
2018-11-10T10:11:36.237Z,10.28
2018-11-10T10:12:46.192Z,10.17
2018-11-10T10:13:55.895Z,10.36
2018-11-10T10:15:05.326Z,10.28
2018-11-10T10:16:15.599Z,10.31
2018-11-10T10:17:24.889Z,10.36
2018-11-10T10:18:34.576Z,10.38
2018-11-10T10:19:44.544Z,10.27
2018-11-10T10:20:53.735Z,10.39
2018-11-10T10:22:04.076Z,10.39
2018-11-10T10:23:13.526Z,10.53
2018-11-10T10:24:23.240Z,10.62
2018-11-10T10:25:32.928Z,10.79
2018-11-10T10:26:42.883Z,10.77
2018-11-10T10:27:52.575Z,10.68
2018-11-10T10:29:02.799Z,10.68
2018-11-10T10:30:13.275Z,10.59
2018-11-10T10:31:22.969Z,10.51
2018-11-10T10:32:32.659Z,10.34
2018-11-10T10:33:42.625Z,10.3
2018-11-10T10:34:52.714Z,10.28
2018-11-10T10:36:02.684Z,10.41
2018-11-10T10:37:12.388Z,10.43
2018-11-10T10:38:22.344Z,10.55
2018-11-10T10:39:31.956Z,10.59
2018-11-10T10:40:41.981Z,10.64
2018-11-10T10:41:51.927Z,10.8
2018-11-10T10:43:02.174Z,10.86
2018-11-10T10:44:12.316Z,11.04
2018-11-10T10:45:22.293Z,11.04
2018-11-10T10:46:31.981Z,11.16
2018-11-10T10:47:41.944Z,11.16
2018-11-10T10:48:52.026Z,11.33
2018-11-10T10:50:02.073Z,11.25
2018-11-10T10:51:11.511Z,11.41
2018-11-10T10:52:20.931Z,11.48
2018-11-10T10:53:30.661Z,11.63
2018-11-10T10:54:40.608Z,11.81
2018-11-10T10:55:50.453Z,11.8
2018-11-10T10:57:00.996Z,11.77
2018-11-10T10:58:10.742Z,11.8
2018-11-10T10:59:20.432Z,11.88
2018-11-10T11:00:30.396Z,11.99
2018-11-10T11:01:40.355Z,12.28
2018-11-10T11:02:50.548Z,12.53
2018-11-10T11:04:00.830Z,12.53
2018-11-10T11:05:10.288Z,12.43
2018-11-10T11:06:19.733Z,12.47
2018-11-10T11:07:29.452Z,12.53
2018-11-10T11:08:39.170Z,12.28
2018-11-10T11:09:49.061Z,12.15
2018-11-10T11:10:59.016Z,12.05
2018-11-10T11:12:08.976Z,11.96
2018-11-10T11:13:18.926Z,12.12
2018-11-10T11:14:28.658Z,12.3
2018-11-10T11:15:38.888Z,12.4
2018-11-10T11:16:48.721Z,12.51
2018-11-10T11:17:58.692Z,12.72
2018-11-10T11:19:08.655Z,12.75
2018-11-10T11:20:18.104Z,12.91
2018-11-10T11:21:28.052Z,12.9
2018-11-10T11:22:37.999Z,12.8
2018-11-10T11:23:47.679Z,12.86
2018-11-10T11:24:57.379Z,12.83
2018-11-10T11:26:07.085Z,12.9
2018-11-10T11:27:16.780Z,12.73
2018-11-10T11:28:26.482Z,12.55
2018-11-10T11:29:36.315Z,12.69
2018-11-10T11:30:46.478Z,12.72
2018-11-10T11:31:56.440Z,12.72
2018-11-10T11:33:06.404Z,12.73
2018-11-10T11:34:15.848Z,12.68
2018-11-10T11:35:26.223Z,12.75
2018-11-10T11:36:35.987Z,12.78
2018-11-10T11:37:45.942Z,12.68
2018-11-10T11:38:55.395Z,12.78
2018-11-10T11:40:05.357Z,12.66
2018-11-10T11:41:15.162Z,12.63
2018-11-10T11:42:25.763Z,12.84
2018-11-10T11:43:35.235Z,12.98
2018-11-10T11:44:44.940Z,13.05
2018-11-10T11:45:54.900Z,13.11
2018-11-10T11:47:04.867Z,13.3
2018-11-10T11:48:14.813Z,13.46
2018-11-10T11:49:24.502Z,13.31
2018-11-10T11:50:34.450Z,13.12
2018-11-10T11:51:44.142Z,13.09
2018-11-10T11:52:54.126Z,13.12
2018-11-10T11:54:04.097Z,12.95
2018-11-10T11:55:14.062Z,12.91
2018-11-10T11:56:23.502Z,13.08
2018-11-10T11:57:33.345Z,13.21
2018-11-10T11:58:42.883Z,13.42
2018-11-10T11:59:52.321Z,13.68
2018-11-10T12:01:02.004Z,13.82
2018-11-10T12:02:12.205Z,14.03
2018-11-10T12:03:21.448Z,13.8
2018-11-10T12:04:31.728Z,13.76
2018-11-10T12:05:42.056Z,13.47
2018-11-10T12:06:52.050Z,13.3
2018-11-10T12:08:01.499Z,13.3
2018-11-10T12:09:11.188Z,13.43
2018-11-10T12:10:20.625Z,13.33
2018-11-10T12:11:30.064Z,13.43
2018-11-10T12:12:40.016Z,13.43
2018-11-10T12:13:49.736Z,13.28
2018-11-10T12:14:59.174Z,13.33
2018-11-10T12:16:08.905Z,13.31
2018-11-10T12:17:18.858Z,13.27
2018-11-10T12:18:28.564Z,13.21
2018-11-10T12:19:38.239Z,13.36
2018-11-10T12:20:48.088Z,13.39
2018-11-10T12:21:57.605Z,13.27
2018-11-10T12:23:07.817Z,13.11
2018-11-10T12:24:17.531Z,13.11
2018-11-10T12:25:27.477Z,13.08
2018-11-10T12:26:37.267Z,13.11
2018-11-10T12:27:47.054Z,13.06
2018-11-10T12:28:56.763Z,13.06
2018-11-10T12:30:06.456Z,13.16
2018-11-10T12:31:16.158Z,13.23
2018-11-10T12:32:25.896Z,13.28
2018-11-10T12:33:35.401Z,13.4
2018-11-10T12:34:45.126Z,13.5
2018-11-10T12:35:54.821Z,13.68
2018-11-10T12:37:04.793Z,13.85
2018-11-10T12:38:14.746Z,13.87
2018-11-10T12:39:24.430Z,13.97
2018-11-10T12:40:34.132Z,14.12
2018-11-10T12:41:43.855Z,14.23
2018-11-10T12:42:53.807Z,14.19
2018-11-10T12:44:03.755Z,14.19
2018-11-10T12:45:13.462Z,14.15
2018-11-10T12:46:23.472Z,14
2018-11-10T12:47:33.624Z,13.94
2018-11-10T12:48:43.063Z,13.86
2018-11-10T12:49:53.013Z,13.98
2018-11-10T12:51:02.748Z,14.03
2018-11-10T12:52:11.981Z,13.85
2018-11-10T12:53:22.131Z,13.76
2018-11-10T12:54:31.849Z,13.68
2018-11-10T12:55:41.556Z,13.78
2018-11-10T12:56:51.249Z,13.86
2018-11-10T12:58:01.109Z,13.91
2018-11-10T12:59:10.823Z,13.75
2018-11-10T13:00:20.837Z,13.67
2018-11-10T13:01:30.869Z,13.65
2018-11-10T13:02:40.821Z,13.43
2018-11-10T13:03:50.590Z,13.31
2018-11-10T13:05:00.295Z,13.24
2018-11-10T13:06:10.001Z,13.19
2018-11-10T13:07:20.043Z,13.12
2018-11-10T13:08:29.740Z,13.23
2018-11-10T13:09:39.437Z,13.12
2018-11-10T13:10:49.714Z,13.24
2018-11-10T13:12:00.248Z,13.23
2018-11-10T13:13:10.001Z,13.2
2018-11-10T13:14:19.511Z,13.31
2018-11-10T13:15:28.747Z,13.57
2018-11-10T13:16:39.153Z,13.58
2018-11-10T13:17:49.069Z,13.67
2018-11-10T13:18:58.706Z,13.6
2018-11-10T13:20:08.140Z,13.46
2018-11-10T13:21:18.109Z,13.28
2018-11-10T13:22:28.056Z,13.3
2018-11-10T13:23:37.757Z,13.4
2018-11-10T13:24:47.473Z,13.21
2018-11-10T13:25:57.176Z,13.27
2018-11-10T13:27:07.123Z,13.27
2018-11-10T13:28:16.300Z,13.36
2018-11-10T13:29:25.991Z,13.3
2018-11-10T13:30:35.700Z,13.4
2018-11-10T13:31:46.382Z,13.33
2018-11-10T13:32:56.213Z,13.42
2018-11-10T13:34:05.914Z,13.5
2018-11-10T13:35:15.616Z,13.43
2018-11-10T13:36:25.330Z,13.47
2018-11-10T13:37:35.027Z,13.45
2018-11-10T13:38:44.573Z,13.31
2018-11-10T13:39:54.510Z,13.33
2018-11-10T13:41:03.432Z,13.45
2018-11-10T13:42:12.865Z,13.42
2018-11-10T13:43:22.459Z,13.46
2018-11-10T13:44:32.499Z,13.49
2018-11-10T13:45:42.662Z,13.54
2018-11-10T13:46:52.100Z,13.52
2018-11-10T13:48:02.056Z,13.47
2018-11-10T13:49:12.008Z,13.42
2018-11-10T13:50:21.759Z,13.43
2018-11-10T13:51:32.166Z,13.43
2018-11-10T13:52:43.501Z,13.31
2018-11-10T13:53:54.239Z,13.36
2018-11-10T13:55:03.944Z,13.37
2018-11-10T13:56:13.897Z,13.4
2018-11-10T13:57:23.607Z,13.28
2018-11-10T13:58:33.554Z,13.39
2018-11-10T13:59:42.993Z,13.43
2018-11-10T14:00:52.423Z,13.33
2018-11-10T14:02:02.127Z,13.23
2018-11-10T14:03:11.326Z,13.3
2018-11-10T14:04:21.029Z,13.19
2018-11-10T14:05:30.395Z,13.24
2018-11-10T14:06:40.231Z,13.21
2018-11-10T14:07:49.933Z,13.27
2018-11-10T14:08:59.637Z,13.17
2018-11-10T14:10:09.338Z,13.24
2018-11-10T14:11:19.039Z,13.16
2018-11-10T14:12:28.578Z,13.3
2018-11-10T14:13:38.729Z,13.23
2018-11-10T14:14:48.704Z,13.21
2018-11-10T14:15:58.691Z,13.19
2018-11-10T14:17:08.142Z,13.2
2018-11-10T14:18:18.158Z,13.23
2018-11-10T14:19:27.888Z,13.13
2018-11-10T14:20:37.885Z,13.08
2018-11-10T14:21:47.821Z,13.11
2018-11-10T14:22:57.784Z,13.08
2018-11-10T14:24:07.501Z,13.11
2018-11-10T14:25:17.469Z,13.03
2018-11-10T14:26:27.318Z,13.01
2018-11-10T14:27:37.324Z,12.99
2018-11-10T14:28:47.280Z,13.08
2018-11-10T14:29:57.227Z,13.02
2018-11-10T14:31:07.178Z,12.94
2018-11-10T14:32:16.873Z,12.94
2018-11-10T14:33:26.319Z,12.91
2018-11-10T14:34:36.250Z,12.91
2018-11-10T14:35:45.682Z,12.84
2018-11-10T14:36:55.120Z,12.95
2018-11-10T14:38:05.092Z,12.87
2018-11-10T14:39:14.526Z,12.86
2018-11-10T14:40:23.965Z,12.87
2018-11-10T14:41:33.667Z,12.88
2018-11-10T14:42:43.631Z,12.91
2018-11-10T14:43:53.086Z,12.93
2018-11-10T14:45:03.192Z,12.87
2018-11-10T14:46:12.886Z,12.78
2018-11-10T14:47:22.589Z,12.76
2018-11-10T14:48:32.530Z,12.78
2018-11-10T14:49:42.485Z,12.76
2018-11-10T14:50:52.185Z,12.73
2018-11-10T14:52:02.166Z,12.78
2018-11-10T14:53:12.834Z,12.78
2018-11-10T14:54:22.754Z,12.72
2018-11-10T14:55:32.186Z,12.7
2018-11-10T14:56:41.880Z,12.68
2018-11-10T14:57:51.318Z,12.61
2018-11-10T14:59:01.290Z,12.51
2018-11-10T15:00:10.728Z,12.54
2018-11-10T15:01:20.406Z,12.48
2018-11-10T15:02:30.359Z,12.51
2018-11-10T15:03:40.073Z,12.5
2018-11-10T15:04:49.758Z,12.44
2018-11-10T15:05:59.187Z,12.4
2018-11-10T15:07:08.889Z,12.39
2018-11-10T15:08:18.832Z,12.29
2018-11-10T15:09:28.544Z,12.35
2018-11-10T15:10:38.245Z,12.33
2018-11-10T15:11:48.578Z,12.3
2018-11-10T15:12:59.131Z,12.26
2018-11-10T15:14:09.076Z,12.25
2018-11-10T15:15:18.530Z,12.18
2018-11-10T15:16:28.484Z,12.18
2018-11-10T15:17:38.223Z,12.2
2018-11-10T15:18:47.704Z,12.11
2018-11-10T15:19:57.405Z,12.23
2018-11-10T15:21:07.368Z,12.2